Custer, WA (98240)

12:43 PM PDT on September 01, 2015 (GMT -0700)
APRSWXNET | | Change Station
CLOSE
Current Station
Personal Weather Station
Location: Ferndale, WA
Elevation: 62 ft
Nearby Weather Stations

Elev 62 ft 48.90 °N, 122.58 °W | Updated 47 minutes ago

Overcast
Overcast
61 °F
Feels Like 61 °F
N
0
Wind Variable Wind from SSW
Gusts 2.0 mph

Today
High -- | Low -- °F
--% Chance of Precip.
Yesterday
High -- | Low -- °F
Precip. -- in
6:26 AM 7:53 PM
Waning Gibbous, 87% visible
Pressure 29.81 in
Visibility 3.0 miles
Clouds Few 600 ft
Scattered Clouds 2400 ft
Overcast 4400 ft
Dew Point 58 °F
Humidity 90%
Rainfall in
Snow Depth Not available.
UV 2 out of 12
Pollen .50 out of 12
Air Quality Not available.
Flu Activity Not available.
METAR KORS 011935Z AUTO 17004KT 3SM -RA FEW006 SCT024 OVC044 16/13 A2981 RMK AO2 P0001
Pressure 29.81 in
Visibility 3.0 miles
Clouds Few 600 ft
Scattered Clouds 2400 ft
Overcast 4400 ft
Dew Point 58 °F
Humidity 90%
Rainfall in
Snow Depth Not available.
UV 2 out of 12
Pollen .50 out of 12
Air Quality Not available.
Flu Activity Not available.
METAR KORS 011935Z AUTO 17004KT 3SM -RA FEW006 SCT024 OVC044 16/13 A2981 RMK AO2 P0001

10-Day Weather Forecast

×

Almanac

Astronomy

Sep. 01, 2015 Rise Set
Actual Time
Civil Twilight
Nautical Twilight
Astronomical Twilight
Moon
Length of Visible Light
Length of Day
Tomorrow will be .
, % of the Moon is Illuminated

Today's Extremes

State Highs State Lows

Community

WunderPhotos

Upload Photos

1,851,597 photos uploaded!

WunderBlogs® & News

Nearby

Air Quality

  Air Quality AQ Index Pollutant
Not available.

Snow Depth

Station Depth Elevation

Earthquake Activity

City Distance Mag. Time & Date
Minimum magnitude displayed is 2.5.

Coastal Water Temperatures

Place Temperature

Stations

Nearby Weather Stations

Station Location Temp. Windchill Dew Point Humidity Wind Precip. Elev Updated Type